Time;durP1;ratioP1;P1;durP2;ratioP2;P2;SDS_P1;SDS_P2;PMS_P1;PMS_P2;Temp;Humidity;BMP_temperature;BMP_pressure;BME280_temperature;BME280_humidity;BME280_pressure;Samples;Min_cycle;Max_cycle;Signal;HPM_P1;HPM_P2
2022/05/18 00:02:10;;;;;;;12.65;5.40;;;18.90;58.40;;;;;;5085643;28;20024;-60
2022/05/18 00:04:36;;;;;;;10.23;5.15;;;18.80;58.40;;;;;;5082673;28;20040;-60
2022/05/18 00:07:03;;;;;;;11.68;5.70;;;18.90;58.60;;;;;;5077970;28;20036;-60
2022/05/18 00:09:28;;;;;;;8.77;5.40;;;18.80;58.70;;;;;;5088803;28;20024;-60
2022/05/18 00:11:54;;;;;;;10.30;5.60;;;18.80;58.90;;;;;;5084914;28;20028;-60
2022/05/18 00:14:20;;;;;;;10.90;6.28;;;18.80;59.10;;;;;;5086607;28;20020;-60
2022/05/18 00:16:46;;;;;;;11.18;5.70;;;18.80;59.10;;;;;;5082747;28;20057;-60
2022/05/18 00:19:12;;;;;;;13.13;6.28;;;18.80;59.20;;;;;;5080906;28;20013;-61
2022/05/18 00:21:37;;;;;;;9.65;5.70;;;18.70;59.30;;;;;;5080879;28;20035;-61
2022/05/18 00:24:04;;;;;;;10.57;5.78;;;18.70;59.50;;;;;;5089853;28;20020;-61
2022/05/18 00:26:30;;;;;;;10.63;5.72;;;18.70;59.50;;;;;;5087306;28;20481;-60
2022/05/18 00:28:56;;;;;;;7.80;5.82;;;18.70;59.70;;;;;;5091612;28;20031;-61
2022/05/18 00:31:21;;;;;;;10.00;6.13;;;18.70;59.70;;;;;;5088778;28;20388;-61
2022/05/18 00:33:47;;;;;;;10.43;6.25;;;18.60;59.70;;;;;;5086258;28;20024;-60
2022/05/18 00:36:13;;;;;;;11.45;5.85;;;18.70;59.80;;;;;;5084119;28;20024;-61
2022/05/18 00:38:39;;;;;;;10.73;6.30;;;18.60;59.80;;;;;;5082682;28;20461;-60
2022/05/18 00:41:05;;;;;;;7.88;6.13;;;18.60;59.80;;;;;;5071282;28;20035;-61
2022/05/18 00:43:30;;;;;;;10.50;5.80;;;18.60;59.90;;;;;;5082616;28;20465;-60
2022/05/18 00:46:02;;;;;;;10.68;6.07;;;18.50;60.00;;;;;;5086506;28;20031;-60
2022/05/18 00:48:29;;;;;;;12.02;5.85;;;18.50;60.20;;;;;;5066987;28;20039;-61
2022/05/18 00:50:58;;;;;;;13.00;6.38;;;18.40;60.30;;;;;;5081811;28;20028;-60
2022/05/18 00:53:28;;;;;;;12.02;5.97;;;18.50;60.60;;;;;;5083131;28;20039;-60
2022/05/18 00:56:03;;;;;;;14.02;6.65;;;18.40;61.00;;;;;;5080207;28;20028;-60
2022/05/18 00:58:29;;;;;;;11.40;5.78;;;18.30;61.20;;;;;;5082874;28;20024;-60
2022/05/18 01:00:56;;;;;;;10.30;6.13;;;18.30;61.30;;;;;;5087730;28;20030;-60
2022/05/18 01:03:41;;;;;;;9.57;6.07;;;18.30;61.50;;;;;;5088926;28;20108;-61
2022/05/18 01:06:49;;;;;;;11.07;5.63;;;18.20;61.70;;;;;;5087171;28;20032;-60
2022/05/18 01:09:37;;;;;;;11.70;6.28;;;18.30;61.80;;;;;;5050734;28;20035;-60
2022/05/18 01:12:05;;;;;;;11.18;5.72;;;18.30;61.90;;;;;;5056097;28;20050;-60
2022/05/18 01:14:43;;;;;;;9.48;5.97;;;18.20;61.80;;;;;;5082727;28;20044;-60
2022/05/18 01:17:11;;;;;;;11.95;6.00;;;18.20;62.00;;;;;;5080320;28;20020;-59
2022/05/18 01:19:44;;;;;;;11.13;6.03;;;18.20;62.10;;;;;;5083509;28;20061;-61
2022/05/18 01:22:31;;;;;;;14.63;6.05;;;18.20;62.20;;;;;;5079643;28;20020;-61
2022/05/18 01:25:00;;;;;;;8.23;5.65;;;18.10;62.20;;;;;;5078341;28;20535;-61
2022/05/18 01:27:26;;;;;;;10.07;5.60;;;18.10;63.10;;;;;;5076566;28;20020;-61
2022/05/18 01:29:53;;;;;;;13.15;6.07;;;18.10;62.40;;;;;;5077265;28;20481;-60
2022/05/18 01:32:19;;;;;;;9.80;5.82;;;18.10;62.40;;;;;;5085996;28;20476;-61
2022/05/18 01:34:45;;;;;;;13.32;6.55;;;18.10;62.40;;;;;;5085600;28;20044;-60
2022/05/18 01:37:13;;;;;;;10.80;5.47;;;18.00;62.40;;;;;;5093249;28;20020;-60
2022/05/18 01:39:46;;;;;;;8.35;5.22;;;18.00;62.50;;;;;;5091267;28;20027;-61
2022/05/18 01:42:37;;;;;;;8.32;5.50;;;18.00;62.30;;;;;;5091982;28;20062;-61
2022/05/18 01:45:03;;;;;;;12.68;5.95;;;18.00;62.30;;;;;;5057888;28;20113;-61
2022/05/18 01:47:34;;;;;;;11.15;6.05;;;18.00;62.30;;;;;;5073529;28;20098;-60
2022/05/18 01:50:02;;;;;;;14.30;6.10;;;18.00;62.20;;;;;;5073414;28;20144;-61
2022/05/18 01:52:28;;;;;;;6.93;5.43;;;17.90;62.20;;;;;;5053297;28;20023;-62
2022/05/18 01:54:53;;;;;;;10.98;5.85;;;17.90;62.30;;;;;;5053956;28;20265;-61
2022/05/18 01:57:19;;;;;;;11.15;5.90;;;17.90;62.30;;;;;;5064899;28;20029;-61
2022/05/18 01:59:45;;;;;;;8.65;5.78;;;17.90;62.10;;;;;;5072703;28;20086;-61
2022/05/18 02:02:10;;;;;;;12.68;6.13;;;17.90;62.10;;;;;;5070721;28;20477;-61
2022/05/18 02:04:36;;;;;;;13.13;6.03;;;17.90;62.10;;;;;;5065577;28;20466;-60
2022/05/18 02:07:03;;;;;;;11.15;5.88;;;17.90;62.20;;;;;;5055354;28;20710;-61
2022/05/18 02:09:30;;;;;;;11.82;5.95;;;17.90;62.20;;;;;;5067439;28;20032;-60
2022/05/18 02:11:56;;;;;;;10.38;5.88;;;17.80;62.20;;;;;;5054889;28;20091;-60
2022/05/18 02:14:23;;;;;;;11.90;6.50;;;17.80;62.20;;;;;;5069268;28;20021;-60
2022/05/18 02:16:49;;;;;;;10.68;6.20;;;17.80;62.10;;;;;;5070453;28;20028;-60
2022/05/18 02:19:16;;;;;;;12.00;5.90;;;17.80;62.00;;;;;;5072515;28;20044;-60
2022/05/18 02:21:42;;;;;;;12.23;6.20;;;17.80;62.00;;;;;;5073403;28;20013;-61
2022/05/18 02:24:08;;;;;;;11.65;5.90;;;17.80;61.80;;;;;;5054946;28;20024;-60
2022/05/18 02:26:34;;;;;;;12.40;5.72;;;17.90;61.70;;;;;;5070115;28;20032;-60
2022/05/18 02:29:00;;;;;;;9.35;5.55;;;17.90;61.50;;;;;;5062228;28;20359;-59
2022/05/18 02:31:25;;;;;;;9.93;5.32;;;17.80;61.40;;;;;;5064899;28;20027;-62
2022/05/18 02:33:51;;;;;;;8.30;5.43;;;17.80;61.20;;;;;;5052768;28;20025;-60
2022/05/18 02:36:17;;;;;;;9.85;5.70;;;17.80;61.00;;;;;;5060855;28;20073;-59
2022/05/18 02:38:43;;;;;;;15.73;5.45;;;17.80;61.00;;;;;;5072463;28;20032;-60
2022/05/18 02:41:09;;;;;;;10.80;5.57;;;17.80;61.00;;;;;;5054959;28;20032;-60
2022/05/18 02:43:38;;;;;;;12.13;5.82;;;17.80;60.90;;;;;;5077691;28;20073;-61
2022/05/18 02:46:09;;;;;;;11.77;6.13;;;17.80;61.00;;;;;;5089509;28;20492;-60
2022/05/18 02:48:36;;;;;;;15.23;6.25;;;17.80;60.80;;;;;;5088953;28;20020;-61
2022/05/18 02:51:03;;;;;;;13.43;6.13;;;17.70;61.00;;;;;;5088271;28;20032;-60
2022/05/18 02:53:28;;;;;;;13.50;6.78;;;17.70;61.20;;;;;;5091775;28;20042;-62
2022/05/18 02:56:06;;;;;;;12.75;6.32;;;17.70;61.10;;;;;;5072677;28;20489;-61
2022/05/18 02:58:40;;;;;;;16.05;5.88;;;17.70;61.10;;;;;;5071048;28;20028;-60
2022/05/18 03:01:08;;;;;;;9.80;6.35;;;17.70;61.20;;;;;;5078482;28;20020;-60
2022/05/18 03:03:36;;;;;;;9.98;5.75;;;17.60;61.20;;;;;;5065703;28;20028;-61
2022/05/18 03:06:03;;;;;;;10.77;6.15;;;17.70;61.30;;;;;;5069639;28;20020;-60
2022/05/18 03:08:31;;;;;;;16.85;6.15;;;17.70;61.20;;;;;;5091453;28;20085;-61
2022/05/18 03:10:56;;;;;;;14.15;6.63;;;17.70;61.30;;;;;;5081201;28;20042;-60
2022/05/18 03:13:22;;;;;;;9.68;6.22;;;17.80;61.20;;;;;;5090288;28;20099;-60
2022/05/18 03:15:48;;;;;;;15.45;6.40;;;17.70;61.20;;;;;;5078698;28;20537;-60
2022/05/18 03:18:14;;;;;;;11.30;6.68;;;17.70;61.30;;;;;;5089768;28;20381;-61
2022/05/18 03:23:35;;;;;;;13.25;6.28;;;17.60;61.50;;;;;;5083521;28;20035;-59
2022/05/18 03:26:04;;;;;;;12.45;5.90;;;17.60;61.50;;;;;;5079247;28;20020;-60
2022/05/18 03:28:31;;;;;;;13.30;6.03;;;17.70;61.60;;;;;;5089089;28;20396;-60
2022/05/18 03:30:56;;;;;;;13.98;7.85;;;17.60;61.70;;;;;;5087545;28;20028;-61
2022/05/18 03:33:23;;;;;;;11.88;6.03;;;17.60;61.80;;;;;;5089058;28;20065;-61
2022/05/18 03:35:49;;;;;;;12.63;5.85;;;17.70;61.60;;;;;;5088940;28;20026;-60
2022/05/18 03:38:16;;;;;;;12.20;6.35;;;17.70;61.60;;;;;;5092955;28;20028;-61
2022/05/18 03:40:42;;;;;;;11.10;5.68;;;17.60;61.60;;;;;;5084599;28;20024;-61
2022/05/18 03:43:07;;;;;;;12.02;6.35;;;17.60;61.50;;;;;;5051160;28;20080;-61
2022/05/18 03:45:33;;;;;;;9.38;5.70;;;17.70;61.40;;;;;;5060514;28;20056;-61
2022/05/18 03:48:00;;;;;;;12.50;5.85;;;17.70;61.40;;;;;;5063328;28;20025;-61
2022/05/18 03:50:28;;;;;;;12.77;5.68;;;17.80;61.20;;;;;;5064067;28;20155;-61
2022/05/18 03:52:54;;;;;;;10.55;5.95;;;17.80;61.00;;;;;;5065128;28;20382;-62
2022/05/18 03:55:20;;;;;;;9.77;5.82;;;17.80;60.90;;;;;;5061217;28;20393;-61
2022/05/18 03:57:46;;;;;;;10.23;5.95;;;17.80;60.90;;;;;;5059094;28;20029;-61
2022/05/18 04:00:12;;;;;;;11.25;6.30;;;17.70;61.00;;;;;;5064229;28;20101;-60
2022/05/18 04:02:40;;;;;;;10.35;5.80;;;17.70;60.90;;;;;;5062913;28;20120;-60
2022/05/18 04:05:08;;;;;;;12.82;5.90;;;17.70;60.90;;;;;;5042809;28;20036;-60
2022/05/18 04:07:34;;;;;;;12.43;5.75;;;17.70;60.80;;;;;;5053387;28;20040;-60
2022/05/18 04:10:00;;;;;;;12.57;6.10;;;17.80;60.70;;;;;;5066893;28;20025;-61
2022/05/18 04:12:29;;;;;;;9.52;5.80;;;17.90;60.40;;;;;;5066467;28;20114;-60
2022/05/18 04:14:55;;;;;;;16.52;5.57;;;17.90;60.20;;;;;;5069343;28;20021;-60
2022/05/18 04:17:21;;;;;;;11.32;5.75;;;17.90;59.90;;;;;;5064231;28;20025;-60
2022/05/18 04:19:47;;;;;;;9.52;6.07;;;18.00;59.90;;;;;;5062739;28;20025;-59
2022/05/18 04:22:13;;;;;;;12.85;6.10;;;18.00;59.70;;;;;;5064320;28;20021;-60
2022/05/18 04:24:39;;;;;;;12.63;6.40;;;18.10;59.40;;;;;;5064070;28;20057;-60
2022/05/18 04:27:06;;;;;;;9.65;5.45;;;18.10;59.40;;;;;;5064765;28;20047;-60
2022/05/18 04:29:32;;;;;;;10.40;5.95;;;18.00;59.30;;;;;;5049328;28;20547;-60
2022/05/18 04:31:58;;;;;;;12.52;6.18;;;18.00;59.40;;;;;;5068838;28;20025;-61
2022/05/18 04:34:25;;;;;;;14.07;6.38;;;18.00;59.30;;;;;;5070022;28;20031;-60
2022/05/18 04:36:51;;;;;;;14.98;6.28;;;18.10;59.30;;;;;;5042980;28;20477;-61
2022/05/18 04:39:17;;;;;;;12.70;7.35;;;18.20;59.10;;;;;;5062468;28;20064;-61
2022/05/18 04:41:43;;;;;;;13.45;7.03;;;18.20;59.10;;;;;;5069374;28;20051;-61
2022/05/18 04:44:08;;;;;;;17.17;6.95;;;18.30;59.00;;;;;;5081748;28;20396;-60
2022/05/18 04:46:34;;;;;;;12.50;7.07;;;18.30;58.80;;;;;;5083037;28;20020;-60
2022/05/18 04:49:00;;;;;;;13.00;6.32;;;18.40;58.60;;;;;;5089291;28;20484;-60
2022/05/18 04:51:26;;;;;;;15.10;6.13;;;18.40;58.30;;;;;;5067101;28;20378;-61
2022/05/18 04:53:52;;;;;;;10.82;6.05;;;18.40;58.10;;;;;;5080796;28;20050;-60
2022/05/18 04:56:18;;;;;;;15.85;6.25;;;18.50;57.80;;;;;;5085044;28;20028;-60
2022/05/18 04:58:43;;;;;;;9.93;6.25;;;18.60;57.60;;;;;;5083838;28;20074;-60
2022/05/18 05:01:10;;;;;;;9.90;5.57;;;18.60;57.30;;;;;;5082538;28;20107;-60
2022/05/18 05:03:37;;;;;;;11.60;6.18;;;18.60;57.10;;;;;;5071354;28;20021;-60
2022/05/18 05:06:04;;;;;;;12.57;5.93;;;18.60;57.00;;;;;;5088438;28;20032;-60
2022/05/18 05:08:30;;;;;;;11.30;5.95;;;18.60;57.10;;;;;;5071986;28;20418;-60
2022/05/18 05:10:56;;;;;;;18.35;6.80;;;18.60;57.10;;;;;;5069991;28;20028;-60
2022/05/18 05:13:23;;;;;;;36.13;9.23;;;18.70;56.90;;;;;;5081259;28;20027;-59
2022/05/18 05:15:54;;;;;;;34.45;8.60;;;18.70;56.80;;;;;;5087192;28;20043;-62
2022/05/18 05:18:20;;;;;;;16.27;6.72;;;18.90;56.30;;;;;;5086471;28;20380;-61
2022/05/18 05:20:46;;;;;;;19.40;7.78;;;19.00;55.80;;;;;;5090599;28;20031;-62
2022/05/18 05:23:13;;;;;;;28.63;8.02;;;19.00;55.70;;;;;;5088002;28;20020;-61
2022/05/18 05:25:39;;;;;;;21.75;7.25;;;19.00;55.40;;;;;;5080061;28;20178;-61
2022/05/18 05:28:12;;;;;;;20.30;7.35;;;19.00;55.30;;;;;;5084746;28;20516;-61
2022/05/18 05:30:40;;;;;;;22.17;7.22;;;19.10;54.60;;;;;;5071700;28;20024;-61
2022/05/18 05:33:07;;;;;;;24.23;7.10;;;19.20;54.50;;;;;;5065680;28;20028;-60
2022/05/18 05:35:33;;;;;;;23.30;7.25;;;19.20;53.80;;;;;;5086409;28;20077;-60
2022/05/18 05:37:59;;;;;;;21.85;7.68;;;19.20;54.00;;;;;;5060171;28;20442;-60
2022/05/18 05:40:24;;;;;;;16.67;6.97;;;19.20;54.30;;;;;;5080517;28;20017;-61
2022/05/18 05:42:50;;;;;;;20.95;6.85;;;19.20;54.50;;;;;;5079255;28;20078;-60
2022/05/18 05:45:16;;;;;;;29.52;7.68;;;19.40;53.60;;;;;;5076756;28;20036;-60
2022/05/18 05:47:42;;;;;;;24.00;7.07;;;19.40;53.60;;;;;;5070092;28;20114;-61
2022/05/18 05:50:08;;;;;;;20.52;7.32;;;19.40;53.20;;;;;;5087429;28;20032;-61
2022/05/18 05:52:34;;;;;;;23.98;7.72;;;19.50;52.90;;;;;;5079829;28;20028;-61
2022/05/18 05:55:03;;;;;;;18.58;7.13;;;19.50;53.10;;;;;;5068763;28;20020;-61
2022/05/18 05:57:30;;;;;;;31.45;8.13;;;19.60;52.80;;;;;;5081450;28;20500;-61
2022/05/18 05:59:55;;;;;;;18.00;7.45;;;19.70;52.30;;;;;;5068904;28;20032;-61
2022/05/18 06:02:22;;;;;;;23.90;7.53;;;19.80;52.20;;;;;;5072856;28;20029;-61
2022/05/18 06:04:48;;;;;;;24.73;7.82;;;19.70;52.10;;;;;;5075112;28;20103;-62
2022/05/18 06:07:14;;;;;;;20.42;6.97;;;19.80;51.70;;;;;;5058197;28;20469;-61
2022/05/18 06:09:41;;;;;;;36.00;8.57;;;19.80;51.60;;;;;;5080767;28;20122;-62
2022/05/18 06:12:07;;;;;;;25.17;7.57;;;19.70;51.60;;;;;;5059521;28;20024;-61
2022/05/18 06:14:33;;;;;;;21.25;7.97;;;19.80;51.00;;;;;;5076432;28;20100;-61
2022/05/18 06:16:59;;;;;;;24.77;7.47;;;19.80;51.10;;;;;;5072007;28;20028;-61
2022/05/18 06:19:25;;;;;;;21.73;6.57;;;19.70;51.40;;;;;;5059739;28;20030;-61
2022/05/18 06:21:51;;;;;;;16.95;7.10;;;19.90;51.00;;;;;;5057183;28;20078;-61
2022/05/18 06:24:18;;;;;;;17.83;6.57;;;19.90;51.10;;;;;;5062481;28;20507;-61
2022/05/18 06:26:44;;;;;;;22.33;7.85;;;19.90;50.60;;;;;;5087527;28;20031;-61
2022/05/18 06:29:10;;;;;;;19.38;8.18;;;19.90;51.10;;;;;;5082834;28;20426;-60
2022/05/18 06:31:36;;;;;;;32.55;8.20;;;20.10;50.50;;;;;;5058589;28;20096;-60
2022/05/18 06:34:02;;;;;;;27.90;9.25;;;20.10;50.90;;;;;;5077984;28;20070;-64
2022/05/18 06:36:28;;;;;;;21.83;7.82;;;20.10;50.90;;;;;;5063408;28;20074;-63
2022/05/18 06:38:53;;;;;;;25.38;8.25;;;20.20;50.80;;;;;;5071623;28;20498;-61
2022/05/18 06:41:22;;;;;;;22.80;8.18;;;20.30;50.80;;;;;;5086135;28;20027;-61
2022/05/18 06:43:56;;;;;;;25.85;7.80;;;20.40;50.90;;;;;;5081105;28;20048;-61
2022/05/18 06:46:24;;;;;;;18.13;7.43;;;20.50;50.90;;;;;;5063202;28;20502;-60
2022/05/18 06:48:50;;;;;;;27.63;8.90;;;20.70;50.60;;;;;;5082832;28;20019;-61
2022/05/18 06:51:21;;;;;;;17.38;8.60;;;21.20;50.40;;;;;;5081672;28;20038;-61
2022/05/18 06:53:49;;;;;;;19.33;8.07;;;23.80;46.40;;;;;;5097012;28;20028;-61
2022/05/18 06:56:15;;;;;;;26.63;8.02;;;27.70;39.90;;;;;;5089728;28;20586;-61
2022/05/18 06:58:41;;;;;;;17.50;7.28;;;31.70;34.40;;;;;;5063235;28;20546;-62
2022/05/18 07:01:07;;;;;;;17.95;8.05;;;34.40;30.20;;;;;;5087659;28;20032;-60
2022/05/18 07:03:34;;;;;;;19.42;7.70;;;36.50;28.70;;;;;;5074781;28;20483;-62
2022/05/18 07:06:00;;;;;;;15.85;6.60;;;38.70;26.90;;;;;;5066554;28;20039;-61
2022/05/18 07:08:26;;;;;;;25.63;7.18;;;40.30;26.20;;;;;;5095269;28;20436;-61
2022/05/18 07:10:52;;;;;;;18.95;7.10;;;41.80;25.10;;;;;;5089561;28;20028;-62
2022/05/18 07:13:18;;;;;;;19.90;6.55;;;43.10;24.00;;;;;;5066816;28;20499;-62
2022/05/18 07:15:47;;;;;;;10.95;6.25;;;43.80;23.60;;;;;;5078641;28;20028;-62
2022/05/18 07:18:13;;;;;;;13.13;6.68;;;44.50;23.20;;;;;;5078947;28;20041;-61
2022/05/18 07:20:39;;;;;;;22.65;6.57;;;44.90;22.90;;;;;;5071322;28;20020;-60
2022/05/18 07:23:05;;;;;;;10.70;6.28;;;44.90;22.90;;;;;;5074284;28;20044;-61
2022/05/18 07:25:31;;;;;;;15.27;6.68;;;45.60;22.90;;;;;;5093087;28;20028;-62
2022/05/18 07:27:57;;;;;;;10.50;6.65;;;46.10;22.20;;;;;;5089938;28;20172;-64
2022/05/18 07:30:23;;;;;;;19.38;6.32;;;46.40;22.00;;;;;;5089407;28;20028;-62
2022/05/18 07:32:52;;;;;;;11.70;6.68;;;46.80;21.90;;;;;;5064324;28;20048;-64
2022/05/18 07:35:36;;;;;;;14.13;6.90;;;46.30;21.70;;;;;;5082659;28;20109;-63
2022/05/18 07:38:02;;;;;;;13.18;6.30;;;46.20;22.00;;;;;;5087865;28;20016;-63
2022/05/18 07:40:29;;;;;;;9.93;5.78;;;46.30;21.90;;;;;;5087038;28;20024;-62
2022/05/18 07:42:56;;;;;;;14.15;6.93;;;46.40;21.90;;;;;;5083067;28;20060;-61
2022/05/18 07:45:25;;;;;;;22.65;7.70;;;46.90;21.90;;;;;;5079631;28;20486;-64
2022/05/18 07:47:54;;;;;;;14.23;6.97;;;47.70;21.50;;;;;;5092213;28;20393;-65
2022/05/18 07:50:22;;;;;;;15.75;7.45;;;48.20;21.30;;;;;;5073994;28;20028;-63
2022/05/18 07:52:50;;;;;;;15.25;7.25;;;48.30;21.00;;;;;;5068530;28;20028;-64
2022/05/18 07:55:17;;;;;;;29.52;8.57;;;48.70;21.00;;;;;;5083372;28;20125;-64
2022/05/18 07:57:43;;;;;;;22.15;6.95;;;48.90;20.80;;;;;;5063471;28;20047;-63
2022/05/18 08:00:15;;;;;;;16.38;7.30;;;49.00;20.60;;;;;;5065368;28;20024;-63
2022/05/18 08:02:41;;;;;;;20.52;8.93;;;49.50;20.30;;;;;;5052779;28;20017;-64
2022/05/18 08:05:07;;;;;;;16.50;7.38;;;50.00;20.00;;;;;;5082932;28;20016;-67
2022/05/18 08:07:34;;;;;;;25.38;8.05;;;50.10;19.80;;;;;;5073109;28;20051;-64
2022/05/18 08:15:33;;;;;;;18.00;6.93;;;51.80;19.60;;;;;;5086837;28;20043;-64
2022/05/18 08:17:59;;;;;;;14.32;6.75;;;52.20;19.30;;;;;;5086321;28;20024;-63
2022/05/18 08:20:25;;;;;;;20.98;7.32;;;52.10;19.00;;;;;;5065404;28;20036;-63
2022/05/18 08:22:52;;;;;;;13.00;6.82;;;51.60;19.00;;;;;;5085124;28;20028;-63
2022/05/18 08:25:18;;;;;;;15.13;6.32;;;51.40;19.00;;;;;;5076654;28;20651;-63
2022/05/18 08:27:47;;;;;;;15.60;6.88;;;51.70;18.90;;;;;;5067112;28;20036;-64
2022/05/18 08:30:17;;;;;;;18.65;6.25;;;52.00;18.80;;;;;;5066767;28;20051;-65
2022/05/18 08:32:43;;;;;;;11.13;6.30;;;52.30;18.60;;;;;;5090712;28;20027;-63
2022/05/18 08:35:10;;;;;;;20.98;5.82;;;52.70;18.50;;;;;;5082536;28;20025;-64
2022/05/18 08:37:46;;;;;;;21.30;7.20;;;53.20;18.50;;;;;;5066449;28;20074;-62
2022/05/18 08:40:25;;;;;;;23.45;7.18;;;54.00;18.30;;;;;;5074839;28;20469;-63
2022/05/18 08:42:51;;;;;;;10.48;4.95;;;54.70;18.10;;;;;;5074927;28;20061;-64
2022/05/18 08:45:18;;;;;;;17.88;6.30;;;54.90;17.80;;;;;;5084147;28;20059;-64
2022/05/18 08:48:09;;;;;;;14.18;5.35;;;54.70;17.80;;;;;;5064551;28;20027;-64
2022/05/18 08:50:37;;;;;;;12.10;4.60;;;53.90;17.80;;;;;;5060812;28;20052;-63
2022/05/18 08:53:32;;;;;;;6.35;4.40;;;53.40;18.10;;;;;;5076638;28;20028;-63
2022/05/18 08:56:08;;;;;;;8.82;4.20;;;52.50;17.40;;;;;;5077962;28;20017;-63
2022/05/18 08:58:51;;;;;;;8.23;3.90;;;51.30;17.50;;;;;;5059603;28;20502;-66
2022/05/18 09:01:22;;;;;;;9.43;3.45;;;49.80;17.80;;;;;;5076628;28;20032;-63
2022/05/18 09:03:56;;;;;;;6.88;3.50;;;49.60;18.10;;;;;;5058519;28;20473;-64
2022/05/18 09:06:38;;;;;;;8.45;3.85;;;49.70;18.20;;;;;;5077301;28;20040;-63
2022/05/18 09:12:09;;;;;;;9.70;3.13;;;49.40;17.70;;;;;;5073560;28;20073;-63
2022/05/18 09:14:38;;;;;;;16.90;3.70;;;46.70;17.90;;;;;;5091583;28;20012;-63
2022/05/18 09:17:24;;;;;;;17.83;3.83;;;43.10;18.80;;;;;;5078041;28;20058;-61
2022/05/18 09:20:22;;;;;;;11.90;2.83;;;40.10;19.90;;;;;;5057586;28;20485;-65
2022/05/18 09:23:13;;;;;;;6.60;2.95;;;37.30;21.40;;;;;;5050084;28;20044;-65
2022/05/18 09:25:50;;;;;;;9.98;2.67;;;34.70;22.60;;;;;;5086469;28;20028;-65
2022/05/18 09:28:35;;;;;;;10.13;3.25;;;33.00;23.50;;;;;;5069862;28;20020;-65
2022/05/18 09:31:07;;;;;;;7.72;2.97;;;31.80;24.20;;;;;;5065178;28;20490;-61
2022/05/18 09:33:55;;;;;;;10.35;2.80;;;30.60;25.20;;;;;;5090574;28;20086;-67
2022/05/18 09:36:44;;;;;;;14.90;4.80;;;29.70;25.90;;;;;;5080647;28;20043;-67
2022/05/18 09:39:14;;;;;;;9.57;3.38;;;29.10;26.60;;;;;;5081386;28;20017;-66
2022/05/18 09:41:59;;;;;;;11.85;3.35;;;28.60;26.50;;;;;;5089061;28;20398;-65
2022/05/18 09:45:06;;;;;;;20.70;6.85;;;28.20;26.90;;;;;;5083194;28;20062;-66
2022/05/18 09:47:39;;;;;;;12.27;3.38;;;27.80;27.20;;;;;;5062834;28;20116;-65
2022/05/18 09:50:08;;;;;;;7.40;2.42;;;27.20;27.50;;;;;;5063252;28;20499;-63
2022/05/18 09:52:37;;;;;;;8.30;3.55;;;27.00;27.40;;;;;;5066359;28;20114;-64
2022/05/18 09:55:08;;;;;;;12.40;3.75;;;26.50;28.10;;;;;;5081642;28;20017;-65
2022/05/18 09:57:53;;;;;;;18.02;8.43;;;26.10;28.70;;;;;;5070755;28;20115;-64
2022/05/18 10:00:24;;;;;;;8.88;3.33;;;25.70;29.20;;;;;;5086780;28;20090;-63
2022/05/18 10:08:34;;;;;;;8.73;4.43;;;25.20;30.40;;;;;;5088952;28;20362;-66
2022/05/18 10:11:12;;;;;;;21.38;7.85;;;25.10;30.40;;;;;;5072701;28;20422;-66
2022/05/18 10:13:48;;;;;;;16.88;5.28;;;25.10;30.00;;;;;;5090801;28;20420;-64
2022/05/18 10:16:31;;;;;;;12.73;3.28;;;25.10;29.70;;;;;;5089413;28;20047;-65
2022/05/18 10:18:59;;;;;;;9.63;3.63;;;25.10;29.90;;;;;;5082402;28;20016;-66
2022/05/18 10:21:50;;;;;;;13.50;3.13;;;25.10;30.00;;;;;;5080264;28;20105;-64
2022/05/18 10:24:34;;;;;;;6.22;2.90;;;25.20;29.80;;;;;;5079277;28;20473;-65
2022/05/18 10:27:15;;;;;;;8.73;3.55;;;25.30;29.90;;;;;;5069656;28;20061;-65
2022/05/18 10:29:43;;;;;;;16.45;5.32;;;25.30;29.50;;;;;;5083814;28;20366;-66
2022/05/18 10:32:19;;;;;;;12.23;4.38;;;25.40;29.10;;;;;;5089267;28;20528;-66
2022/05/18 10:34:51;;;;;;;10.27;3.70;;;25.20;29.30;;;;;;5072057;28;20028;-65
2022/05/18 10:37:36;;;;;;;11.85;3.00;;;25.20;29.70;;;;;;5066880;28;20519;-66
2022/05/18 10:40:09;;;;;;;6.13;2.80;;;25.20;29.60;;;;;;5068544;28;20474;-65
2022/05/18 10:42:45;;;;;;;14.45;3.00;;;25.10;29.30;;;;;;5089415;28;20107;-65
2022/05/18 10:45:42;;;;;;;10.70;4.55;;;25.20;29.30;;;;;;5066099;28;20114;-65
2022/05/18 10:48:11;;;;;;;12.55;2.88;;;25.20;29.00;;;;;;5036412;28;20040;-64
2022/05/18 10:50:41;;;;;;;7.97;2.38;;;25.00;29.10;;;;;;5090415;28;20089;-64
2022/05/18 10:53:12;;;;;;;13.73;4.10;;;24.90;29.40;;;;;;5091940;28;20438;-63
2022/05/18 10:55:57;;;;;;;5.53;2.10;;;24.90;29.60;;;;;;5090969;28;20054;-65
2022/05/18 10:58:26;;;;;;;5.93;2.70;;;24.90;29.60;;;;;;5069018;28;20049;-65
2022/05/18 11:01:23;;;;;;;10.98;2.42;;;25.00;29.50;;;;;;5065977;28;20043;-64
2022/05/18 11:04:13;;;;;;;9.50;3.15;;;25.10;29.60;;;;;;5087804;28;20376;-66
2022/05/18 11:06:41;;;;;;;7.45;2.90;;;25.30;29.60;;;;;;5091032;28;20107;-65
2022/05/18 11:09:19;;;;;;;16.67;7.47;;;25.30;30.00;;;;;;5071502;28;20039;-63
2022/05/18 11:12:36;;;;;;;11.35;3.35;;;25.20;29.40;;;;;;5091559;28;20031;-64
2022/05/18 11:15:05;;;;;;;10.82;2.47;;;25.10;29.40;;;;;;5027093;28;20080;-65
2022/05/18 11:17:40;;;;;;;16.33;4.88;;;25.30;29.30;;;;;;5069267;28;20024;-65
2022/05/18 11:20:40;;;;;;;12.43;3.50;;;25.10;29.50;;;;;;5089249;28;20023;-63
2022/05/18 11:23:29;;;;;;;8.65;3.72;;;25.00;29.60;;;;;;5083019;28;20051;-64
2022/05/18 11:26:10;;;;;;;21.92;13.27;;;24.90;29.70;;;;;;5077358;28;20052;-64
2022/05/18 11:29:02;;;;;;;29.33;4.53;;;25.10;29.50;;;;;;5067479;28;20081;-63
2022/05/18 11:31:51;;;;;;;16.40;3.90;;;25.30;29.30;;;;;;5081773;28;20162;-65
2022/05/18 11:34:35;;;;;;;30.83;10.52;;;25.30;28.70;;;;;;5087061;28;20247;-65
2022/05/18 11:37:24;;;;;;;9.07;3.10;;;25.30;28.50;;;;;;5084021;28;20019;-65
2022/05/18 11:40:22;;;;;;;19.63;3.70;;;25.20;28.40;;;;;;5090572;28;20499;-65
2022/05/18 11:43:25;;;;;;;15.05;3.30;;;25.30;28.00;;;;;;5067459;28;20115;-64
2022/05/18 11:46:14;;;;;;;22.48;4.97;;;25.30;27.80;;;;;;5087217;28;20040;-63
2022/05/18 11:49:18;;;;;;;22.80;3.25;;;25.40;28.40;;;;;;5090350;28;20433;-65
2022/05/18 11:52:17;;;;;;;12.23;3.10;;;25.40;28.40;;;;;;5078461;28;20037;-64
2022/05/18 11:55:17;;;;;;;7.20;2.50;;;25.50;27.60;;;;;;5060418;28;20032;-65
2022/05/18 11:58:02;;;;;;;24.27;3.85;;;25.50;27.30;;;;;;5043781;28;20119;-64
2022/05/18 12:00:50;;;;;;;19.67;4.00;;;25.50;26.60;;;;;;5063471;28;20027;-65
2022/05/18 12:03:44;;;;;;;27.48;5.90;;;25.30;26.00;;;;;;5090716;28;20055;-63
2022/05/18 12:06:31;;;;;;;9.45;3.35;;;25.20;26.70;;;;;;5072714;28;20016;-62
2022/05/18 12:09:38;;;;;;;20.08;4.00;;;25.60;26.70;;;;;;5088992;28;20108;-64
2022/05/18 12:12:23;;;;;;;21.92;3.88;;;25.60;26.90;;;;;;5053725;28;20098;-63
2022/05/18 12:15:02;;;;;;;11.18;2.85;;;25.60;26.40;;;;;;5059591;28;20028;-63
2022/05/18 12:17:41;;;;;;;17.83;6.63;;;25.70;25.70;;;;;;5086438;28;20585;-63
2022/05/18 12:20:18;;;;;;;10.93;2.50;;;25.70;25.80;;;;;;5055395;28;20036;-64
2022/05/18 12:22:58;;;;;;;9.13;2.47;;;25.80;24.80;;;;;;5078817;28;22040;-64
2022/05/18 12:25:27;;;;;;;8.52;3.10;;;26.00;24.30;;;;;;5088176;28;20416;-63
2022/05/18 12:27:56;;;;;;;6.15;2.08;;;26.20;24.40;;;;;;5053706;28;20123;-64
2022/05/18 12:30:25;;;;;;;10.50;2.80;;;26.20;24.30;;;;;;5081923;28;21819;-66
2022/05/18 12:32:53;;;;;;;14.95;4.15;;;26.30;23.90;;;;;;5088982;28;20123;-62
2022/05/18 12:38:35;;;;;;;8.77;2.10;;;26.20;23.60;;;;;;5087013;28;20042;-65
2022/05/18 12:41:13;;;;;;;11.20;2.80;;;26.10;23.50;;;;;;5082792;28;20024;-61
2022/05/18 12:43:45;;;;;;;10.38;3.00;;;26.10;23.20;;;;;;5089597;28;20063;-64
2022/05/18 12:46:22;;;;;;;14.50;3.55;;;25.80;23.60;;;;;;5078299;28;20547;-63
2022/05/18 12:49:02;;;;;;;6.18;1.90;;;25.90;23.70;;;;;;5083055;28;20033;-64
2022/05/18 12:51:27;;;;;;;9.90;2.28;;;25.90;23.50;;;;;;5067406;28;20092;-63
2022/05/18 12:54:12;;;;;;;12.98;3.95;;;26.10;23.40;;;;;;5083804;28;20031;-64
2022/05/18 12:56:38;;;;;;;10.00;3.05;;;26.10;23.10;;;;;;5068542;28;20032;-63
2022/05/18 12:59:15;;;;;;;7.95;2.30;;;26.00;22.80;;;;;;5065271;28;20020;-65
2022/05/18 13:01:50;;;;;;;7.10;2.10;;;25.90;23.20;;;;;;5086217;28;20120;-65
2022/05/18 13:04:16;;;;;;;12.93;2.67;;;26.10;23.10;;;;;;5082344;28;20047;-63
2022/05/18 13:07:18;;;;;;;6.65;2.00;;;26.20;23.30;;;;;;5083682;28;20473;-64
2022/05/18 13:09:47;;;;;;;9.70;2.10;;;26.20;23.00;;;;;;5088042;28;20050;-65
2022/05/18 13:12:25;;;;;;;2.67;1.48;;;26.30;22.80;;;;;;5065849;28;20542;-63
2022/05/18 13:14:58;;;;;;;6.18;1.60;;;26.10;22.80;;;;;;5064297;28;20031;-65
2022/05/18 13:17:42;;;;;;;8.95;1.88;;;26.00;22.80;;;;;;5063619;28;20490;-63
2022/05/18 13:20:30;;;;;;;12.98;3.08;;;26.00;23.30;;;;;;5080335;28;20039;-65
2022/05/18 13:22:59;;;;;;;8.85;2.00;;;26.20;22.60;;;;;;5081033;28;20462;-63